Estación Meteorológica Peña el Pijo (Robertgarden) [ 01/30/23 13:54:42 CET ]

Fecha Hora Presion(HPa) Temp (°C) Humedad % Rocio (°C) Viento ( m/s) Direccion Lluvia 1Hora(mm) Lluvia 24H(mm) LLuvia Total(mm)
2010-Jan-27 01:01:16 1007.900 0.9 95 0.1       1.03 68.37
2010-Jan-27 02:03:17 1006.500 -0.2 94 -1.0       1.03 68.37
2010-Jan-27 03:01:14 1005.800 -0.6 94 -1.4       1.03 68.37
2010-Jan-27 04:01:16 1005.800 -1.9 93 -2.9       1.03 68.37
2010-Jan-27 05:01:14 1005.300 -2.7 92 -3.8       1.03 68.37
2010-Jan-27 06:01:15 1004.900 -3.2 92 -4.3       1.03 68.37
2010-Jan-27 07:01:12 1004.800 -4.1 91 -5.4       1.03 68.37
2010-Jan-27 08:01:12 1005.300 -3.8 92 -4.9       1.03 68.37
2010-Jan-27 09:01:13 1005.400 -3.2 92 -4.3       1.03 68.37
2010-Jan-27 10:01:12 1005.400 -1.7 90 -3.1       1.03 68.37
2010-Jan-27 11:01:11 1005.400 3.3 84 0.8       1.03 68.37
2010-Jan-27 12:01:12 1005.800 3.2 75 -0.8     0.51 1.55 68.89
2010-Jan-27 13:01:12 1005.900 1.3 80 -1.8 2.7 NNW   1.55 68.89
2010-Jan-27 14:01:13 1005.800 0.9 85 -1.4 1.8 N   1.55 68.89
2010-Jan-27 15:01:10 1005.800 -0.1 89 -1.7 1.3 NNE   0.51 68.89
2010-Jan-27 16:01:17 1006.300 -0.1 91 -1.4 1.4 N   0.51 68.89
2010-Jan-27 17:01:12 1006.900 0.3 92 -0.8 1.9 N   0.51 68.89
2010-Jan-27 18:01:16 1007.600 0.8 91 -0.5       0.51 68.89
2010-Jan-27 19:01:17 1008.200 0.3 93 -0.7       0.51 68.89
2010-Jan-27 20:01:15 1008.900 0.1 93 -0.9 1.0 NNW   0.51 68.89
2010-Jan-27 21:01:14 1009.500 0.1 94 -0.8       0.51 68.89
2010-Jan-27 22:01:13 1010.000 -0.1 93 -1.1 2.8 N   0.51 68.89
2010-Jan-27 23:01:11 1010.200 -0.2 94 -1.0       0.51 68.89

Temperatura Máxima:    Temperatura Mínima:-4°
Presión Máxima:1010.200 Hpa    Presión Mínima:1004.800 Hpa


Volver